Time,TemperatureF,DewpointF,PressureIn,WindDirection,WindDirectionDegrees,WindSpeedMPH,WindSpeedGustMPH,Humidity,HourlyPrecipIn,Conditions,Clouds,dailyrainin,SoftwareType,DateUTC
2015-09-05 00:11:00,50.1,14.7,28.80,West,277,0.0,5.0,24,0.00,,---,0.00,VWS V15.00,2015-09-05 07:11:00,
2015-09-05 00:16:00,49.8,14.5,28.80,West,281,6.0,7.0,24,0.00,,---,0.00,VWS V15.00,2015-09-05 07:16:00,
2015-09-05 00:21:00,49.6,14.3,28.80,West,278,4.0,7.0,24,0.00,,---,0.00,VWS V15.00,2015-09-05 07:21:00,
2015-09-05 00:26:00,49.6,13.3,28.81,West,279,5.0,8.0,23,0.00,,---,0.00,VWS V15.00,2015-09-05 07:26:00,
2015-09-05 00:31:00,49.4,13.2,28.81,WNW,283,1.0,6.0,23,0.00,,---,0.00,VWS V15.00,2015-09-05 07:31:00,
2015-09-05 00:36:00,49.3,13.1,28.81,WNW,282,3.0,5.0,23,0.00,,---,0.00,VWS V15.00,2015-09-05 07:36:00,
2015-09-05 00:41:00,49.3,13.1,28.81,West,281,2.0,6.0,23,0.00,,---,0.00,VWS V15.00,2015-09-05 07:41:00,
2015-09-05 00:46:00,49.5,16.9,28.81,WNW,284,6.0,11.0,27,0.00,,---,0.00,VWS V15.00,2015-09-05 07:46:00,
2015-09-05 00:51:00,50.0,17.4,28.81,West,277,4.0,6.0,27,0.00,,---,0.00,VWS V15.00,2015-09-05 07:51:00,
2015-09-05 00:56:00,50.2,17.5,28.81,West,272,6.0,7.0,27,0.00,,---,0.00,VWS V15.00,2015-09-05 07:56:00,
2015-09-05 01:01:00,50.2,16.6,28.81,West,275,3.0,4.0,26,0.00,,---,0.00,VWS V15.00,2015-09-05 08:01:00,
2015-09-05 01:06:00,50.1,16.6,28.81,West,273,6.0,8.0,26,0.00,,---,0.00,VWS V15.00,2015-09-05 08:06:00,
2015-09-05 01:11:00,50.1,15.7,28.81,West,269,4.0,7.0,25,0.00,,---,0.00,VWS V15.00,2015-09-05 08:11:00,
2015-09-05 01:16:00,49.8,15.4,28.81,West,267,4.0,7.0,25,0.00,,---,0.00,VWS V15.00,2015-09-05 08:16:00,
2015-09-05 01:21:00,49.6,16.1,28.81,WSW,258,5.0,6.0,26,0.00,,---,0.00,VWS V15.00,2015-09-05 08:21:00,
2015-09-05 01:26:00,49.2,15.8,28.81,West,269,6.0,9.0,26,0.00,,---,0.00,VWS V15.00,2015-09-05 08:26:00,
2015-09-05 01:31:00,49.0,16.5,28.81,West,272,8.0,8.0,27,0.00,,---,0.00,VWS V15.00,2015-09-05 08:31:00,
2015-09-05 01:36:00,48.9,16.4,28.81,West,271,4.0,8.0,27,0.00,,---,0.00,VWS V15.00,2015-09-05 08:36:00,
2015-09-05 01:41:00,48.8,17.2,28.81,West,273,5.0,7.0,28,0.00,,---,0.00,VWS V15.00,2015-09-05 08:41:00,
2015-09-05 01:46:00,48.6,17.0,28.81,West,274,5.0,8.0,28,0.00,,---,0.00,VWS V15.00,2015-09-05 08:46:00,
2015-09-05 01:51:00,48.5,16.9,28.81,NW,305,2.0,3.0,28,0.00,,---,0.00,VWS V15.00,2015-09-05 08:51:00,
2015-09-05 01:56:00,48.0,21.0,28.82,NW,317,1.0,4.0,34,0.00,,---,0.00,VWS V15.00,2015-09-05 08:56:00,
2015-09-05 02:01:00,47.2,24.1,28.82,NNE,23,4.0,5.0,40,0.00,,---,0.00,VWS V15.00,2015-09-05 09:01:00,
2015-09-05 02:06:00,46.6,25.9,28.82,NNW,331,1.0,4.0,44,0.00,,---,0.00,VWS V15.00,2015-09-05 09:06:00,
2015-09-05 02:11:00,46.3,25.6,28.82,NW,310,2.0,6.0,44,0.00,,---,0.00,VWS V15.00,2015-09-05 09:11:00,
2015-09-05 02:21:00,45.6,26.5,28.82,NNW,333,2.0,3.0,47,0.00,,---,0.00,VWS V15.00,2015-09-05 09:21:00,
2015-09-05 02:26:00,45.5,27.0,28.82,NNW,345,1.0,4.0,48,0.00,,---,0.00,VWS V15.00,2015-09-05 09:26:00,
2015-09-05 02:31:00,45.4,26.9,28.82,NNW,340,2.0,6.0,48,0.00,,---,0.00,VWS V15.00,2015-09-05 09:31:00,
2015-09-05 02:36:00,45.3,26.8,28.83,NNW,336,3.0,4.0,48,0.00,,---,0.00,VWS V15.00,2015-09-05 09:36:00,
2015-09-05 02:41:00,45.2,27.2,28.83,NW,323,3.0,5.0,49,0.00,,---,0.00,VWS V15.00,2015-09-05 09:41:00,
2015-09-05 02:46:00,45.0,27.5,28.83,NW,304,2.0,5.0,50,0.00,,---,0.00,VWS V15.00,2015-09-05 09:46:00,
2015-09-05 02:51:00,44.9,27.4,28.83,NNW,345,4.0,5.0,50,0.00,,---,0.00,VWS V15.00,2015-09-05 09:51:00,
2015-09-05 02:56:00,44.7,28.2,28.83,North,360,3.0,6.0,52,0.00,,---,0.00,VWS V15.00,2015-09-05 09:56:00,
2015-09-05 03:01:00,44.6,28.5,28.83,NNW,341,2.0,5.0,53,0.00,,---,0.00,VWS V15.00,2015-09-05 10:01:00,
2015-09-05 03:06:00,44.5,28.9,28.83,North,355,2.0,7.0,54,0.00,,---,0.00,VWS V15.00,2015-09-05 10:06:00,
2015-09-05 03:11:00,44.2,29.1,28.83,North,355,7.0,7.0,55,0.00,,---,0.00,VWS V15.00,2015-09-05 10:11:00,
2015-09-05 03:16:00,44.1,29.0,28.83,NW,322,3.0,6.0,55,0.00,,---,0.00,VWS V15.00,2015-09-05 10:16:00,
2015-09-05 03:21:00,44.0,28.9,28.83,North,355,5.0,12.0,55,0.00,,---,0.00,VWS V15.00,2015-09-05 10:21:00,
2015-09-05 03:26:00,43.9,29.2,28.83,North,355,3.0,7.0,56,0.00,,---,0.00,VWS V15.00,2015-09-05 10:26:00,
2015-09-05 03:31:00,43.7,29.0,28.83,North,355,7.0,7.0,56,0.00,,---,0.00,VWS V15.00,2015-09-05 10:31:00,
2015-09-05 03:41:00,43.3,28.2,28.83,North,9,5.0,6.0,55,0.00,,---,0.00,VWS V15.00,2015-09-05 10:41:00,
2015-09-05 03:46:00,43.0,28.0,28.83,North,9,9.0,11.0,55,0.00,,---,0.00,VWS V15.00,2015-09-05 10:46:00,
2015-09-05 03:51:00,42.8,27.8,28.83,NNE,22,6.0,8.0,55,0.00,,---,0.00,VWS V15.00,2015-09-05 10:51:00,
2015-09-05 03:56:00,42.5,27.5,28.83,NNE,15,5.0,8.0,55,0.00,,---,0.00,VWS V15.00,2015-09-05 10:56:00,
2015-09-05 04:01:00,42.3,27.3,28.83,NNW,346,5.0,7.0,55,0.00,,---,0.00,VWS V15.00,2015-09-05 11:01:00,
2015-09-05 04:06:00,42.1,27.5,28.83,NNW,332,8.0,8.0,56,0.00,,---,0.00,VWS V15.00,2015-09-05 11:06:00,
2015-09-05 04:11:00,42.0,27.5,28.84,NNW,346,6.0,7.0,56,0.00,,---,0.00,VWS V15.00,2015-09-05 11:11:00,
2015-09-05 04:16:00,41.9,27.4,28.84,NNW,344,4.0,6.0,56,0.00,,---,0.00,VWS V15.00,2015-09-05 11:16:00,
2015-09-05 04:21:00,41.7,26.7,28.84,North,5,4.0,9.0,55,0.00,,---,0.00,VWS V15.00,2015-09-05 11:21:00,
2015-09-05 04:26:00,41.6,26.6,28.84,North,355,4.0,7.0,55,0.00,,---,0.00,VWS V15.00,2015-09-05 11:26:00,
2015-09-05 04:31:00,41.5,26.5,28.84,North,360,3.0,7.0,55,0.00,,---,0.00,VWS V15.00,2015-09-05 11:31:00,
2015-09-05 04:36:00,41.3,26.4,28.85,NNE,22,2.0,8.0,55,0.00,,---,0.00,VWS V15.00,2015-09-05 11:36:00,
2015-09-05 04:41:00,41.3,26.4,28.85,NNE,17,1.0,3.0,55,0.00,,---,0.00,VWS V15.00,2015-09-05 11:41:00,
2015-09-05 04:46:00,41.2,26.7,28.85,NNE,19,3.0,7.0,56,0.00,,---,0.00,VWS V15.00,2015-09-05 11:46:00,
2015-09-05 04:51:00,41.1,26.6,28.85,NNE,22,4.0,5.0,56,0.00,,---,0.00,VWS V15.00,2015-09-05 11:51:00,
2015-09-05 04:56:00,40.9,26.4,28.85,NE,36,6.0,6.0,56,0.00,,---,0.00,VWS V15.00,2015-09-05 11:56:00,
2015-09-05 05:01:00,40.8,26.8,28.85,NNE,19,3.0,5.0,57,0.00,,---,0.00,VWS V15.00,2015-09-05 12:01:00,
2015-09-05 05:06:00,40.7,27.1,28.86,NNE,19,0.0,0.0,58,0.00,,---,0.00,VWS V15.00,2015-09-05 12:06:00,
2015-09-05 05:11:00,40.7,27.1,28.86,NNE,20,2.0,3.0,58,0.00,,---,0.00,VWS V15.00,2015-09-05 12:11:00,
2015-09-05 05:16:00,40.6,27.4,28.86,NNE,21,0.0,0.0,59,0.00,,---,0.00,VWS V15.00,2015-09-05 12:16:00,
2015-09-05 05:21:00,40.5,26.9,28.86,NNE,21,0.0,0.0,58,0.00,,---,0.00,VWS V15.00,2015-09-05 12:21:00,
2015-09-05 05:26:00,40.4,26.8,28.87,NNE,20,1.0,2.0,58,0.00,,---,0.00,VWS V15.00,2015-09-05 12:26:00,
2015-09-05 05:31:00,40.2,27.0,28.87,North,11,3.0,4.0,59,0.00,,---,0.00,VWS V15.00,2015-09-05 12:31:00,
2015-09-05 05:36:00,40.1,26.9,28.87,North,11,0.0,0.0,59,0.00,,---,0.00,VWS V15.00,2015-09-05 12:36:00,
2015-09-05 05:41:00,40.0,26.8,28.87,North,11,1.0,2.0,59,0.00,,---,0.00,VWS V15.00,2015-09-05 12:41:00,
2015-09-05 05:46:00,39.8,27.1,28.87,North,11,1.0,2.0,60,0.00,,---,0.00,VWS V15.00,2015-09-05 12:46:00,
2015-09-05 05:51:00,39.7,27.0,28.87,North,11,0.0,4.0,60,0.00,,---,0.00,VWS V15.00,2015-09-05 12:51:00,
2015-09-05 05:56:00,39.6,27.3,28.87,North,11,0.0,1.0,61,0.00,,---,0.00,VWS V15.00,2015-09-05 12:56:00,
2015-09-05 06:01:00,39.5,27.6,28.88,North,11,1.0,1.0,62,0.00,,---,0.00,VWS V15.00,2015-09-05 13:01:00,
2015-09-05 06:06:00,39.5,27.6,28.88,North,11,2.0,2.0,62,0.00,,---,0.00,VWS V15.00,2015-09-05 13:06:00,
2015-09-05 06:11:00,39.4,27.5,28.88,North,11,0.0,0.0,62,0.00,,---,0.00,VWS V15.00,2015-09-05 13:11:00,
2015-09-05 06:16:00,39.3,27.4,28.88,North,11,0.0,0.0,62,0.00,,---,0.00,VWS V15.00,2015-09-05 13:16:00,
2015-09-05 06:21:00,39.3,27.8,28.89,North,11,2.0,3.0,63,0.00,,---,0.00,VWS V15.00,2015-09-05 13:21:00,
2015-09-05 06:26:00,39.3,27.8,28.89,North,10,3.0,4.0,63,0.00,,---,0.00,VWS V15.00,2015-09-05 13:26:00,
2015-09-05 06:31:00,39.2,27.7,28.89,North,355,3.0,5.0,63,0.00,,---,0.00,VWS V15.00,2015-09-05 13:31:00,
2015-09-05 06:36:00,39.2,27.7,28.89,North,355,2.0,4.0,63,0.00,,---,0.00,VWS V15.00,2015-09-05 13:36:00,
2015-09-05 06:41:00,39.2,28.1,28.89,North,5,4.0,5.0,64,0.00,,---,0.00,VWS V15.00,2015-09-05 13:41:00,
2015-09-05 06:46:00,39.2,28.1,28.90,North,360,3.0,3.0,64,0.00,,---,0.00,VWS V15.00,2015-09-05 13:46:00,
2015-09-05 06:51:00,39.3,28.2,28.90,North,355,4.0,5.0,64,0.00,,---,0.00,VWS V15.00,2015-09-05 13:51:00,
2015-09-05 06:56:00,39.5,28.4,28.90,North,355,4.0,5.0,64,0.00,,---,0.00,VWS V15.00,2015-09-05 13:56:00,
2015-09-05 07:01:00,39.6,28.4,28.91,North,360,4.0,5.0,64,0.00,,---,0.00,VWS V15.00,2015-09-05 14:01:00,
2015-09-05 07:06:00,39.7,28.5,28.91,North,11,4.0,5.0,64,0.00,,---,0.00,VWS V15.00,2015-09-05 14:06:00,
2015-09-05 07:11:00,39.8,28.2,28.91,North,355,4.0,6.0,63,0.00,,---,0.00,VWS V15.00,2015-09-05 14:11:00,
2015-09-05 07:16:00,39.9,28.3,28.91,North,10,4.0,6.0,63,0.00,,---,0.00,VWS V15.00,2015-09-05 14:16:00,
2015-09-05 07:21:00,40.1,28.5,28.91,North,351,2.0,6.0,63,0.00,,---,0.00,VWS V15.00,2015-09-05 14:21:00,
2015-09-05 07:26:00,40.4,28.8,28.91,North,355,3.0,6.0,63,0.00,,---,0.00,VWS V15.00,2015-09-05 14:26:00,
2015-09-05 07:31:00,40.6,28.6,28.92,NNW,346,1.0,4.0,62,0.00,,---,0.00,VWS V15.00,2015-09-05 14:31:00,
2015-09-05 07:36:00,41.0,29.0,28.92,NNW,338,3.0,6.0,62,0.00,,---,0.00,VWS V15.00,2015-09-05 14:36:00,
2015-09-05 07:41:00,41.4,29.4,28.92,NNW,340,3.0,5.0,62,0.00,,---,0.00,VWS V15.00,2015-09-05 14:41:00,
2015-09-05 07:46:00,41.9,29.5,28.92,North,350,4.0,6.0,61,0.00,,---,0.00,VWS V15.00,2015-09-05 14:46:00,
2015-09-05 07:51:00,42.4,29.9,28.92,North,355,4.0,6.0,61,0.00,,---,0.00,VWS V15.00,2015-09-05 14:51:00,
2015-09-05 07:56:00,42.7,29.8,28.92,North,5,3.0,7.0,60,0.00,,---,0.00,VWS V15.00,2015-09-05 14:56:00,
2015-09-05 08:01:00,42.9,29.6,28.92,North,355,3.0,7.0,59,0.00,,---,0.00,VWS V15.00,2015-09-05 15:01:00,
2015-09-05 08:06:00,43.6,30.2,28.93,North,360,2.0,4.0,59,0.00,,---,0.00,VWS V15.00,2015-09-05 15:06:00,
2015-09-05 08:11:00,44.5,30.2,28.93,NNW,343,2.0,6.0,57,0.00,,---,0.00,VWS V15.00,2015-09-05 15:11:00,
2015-09-05 08:16:00,44.4,30.1,28.93,North,355,3.0,6.0,57,0.00,,---,0.00,VWS V15.00,2015-09-05 15:16:00,
2015-09-05 08:21:00,44.7,30.4,28.93,NNW,348,2.0,6.0,57,0.00,,---,0.00,VWS V15.00,2015-09-05 15:21:00,
2015-09-05 08:26:00,45.6,30.8,28.93,North,351,3.0,5.0,56,0.00,,---,0.00,VWS V15.00,2015-09-05 15:26:00,
2015-09-05 08:31:00,46.4,31.1,28.93,North,360,2.0,5.0,55,0.00,,---,0.00,VWS V15.00,2015-09-05 15:31:00,
2015-09-05 08:36:00,46.6,30.4,28.94,North,351,3.0,7.0,53,0.00,,---,0.00,VWS V15.00,2015-09-05 15:36:00,
2015-09-05 08:41:00,47.0,30.8,28.94,NNW,346,5.0,6.0,53,0.00,,---,0.00,VWS V15.00,2015-09-05 15:41:00,
2015-09-05 08:46:00,47.8,31.0,28.94,NNE,22,1.0,6.0,52,0.00,,---,0.00,VWS V15.00,2015-09-05 15:46:00,
2015-09-05 08:48:00,48.4,32.1,28.94,NNE,22,3.0,3.0,53,0.00,,---,0.00,VWS V15.00,2015-09-05 15:48:00,
2015-09-05 08:50:00,48.6,31.3,28.93,NNW,346,1.0,5.0,51,0.00,,---,0.00,VWS V15.00,2015-09-05 15:50:00,
2015-09-05 08:51:00,48.7,31.4,28.94,NNW,346,5.0,6.0,51,0.00,,---,0.00,VWS V15.00,2015-09-05 15:51:00,
2015-09-05 08:56:00,49.2,31.9,28.94,NNE,17,2.0,7.0,51,0.00,,---,0.00,VWS V15.00,2015-09-05 15:56:00,
2015-09-05 09:01:00,50.0,33.1,28.94,NNE,16,2.0,5.0,52,0.00,,---,0.00,VWS V15.00,2015-09-05 16:01:00,
2015-09-05 09:06:00,50.2,32.8,28.94,North,11,8.0,8.0,51,0.00,,---,0.00,VWS V15.00,2015-09-05 16:06:00,
2015-09-05 09:11:00,50.4,32.5,28.95,NNW,343,4.0,4.0,50,0.00,,---,0.00,VWS V15.00,2015-09-05 16:11:00,
2015-09-05 09:16:00,50.8,32.3,28.95,NNW,348,4.0,6.0,49,0.00,,---,0.00,VWS V15.00,2015-09-05 16:16:00,
2015-09-05 09:21:00,50.6,32.2,28.95,NE,35,3.0,6.0,49,0.00,,---,0.00,VWS V15.00,2015-09-05 16:21:00,
2015-09-05 09:26:00,51.2,32.7,28.95,North,10,5.0,7.0,49,0.00,,---,0.00,VWS V15.00,2015-09-05 16:26:00,
2015-09-05 09:31:00,52.3,33.7,28.95,North,5,6.0,6.0,49,0.00,,---,0.00,VWS V15.00,2015-09-05 16:31:00,
2015-09-05 09:36:00,52.4,33.3,28.95,NNE,18,4.0,7.0,48,0.00,,---,0.00,VWS V15.00,2015-09-05 16:36:00,
2015-09-05 09:41:00,51.7,33.2,28.96,NE,43,4.0,4.0,49,0.00,,---,0.00,VWS V15.00,2015-09-05 16:41:00,
2015-09-05 09:46:00,53.6,33.3,28.96,NNE,12,2.0,7.0,46,0.00,,---,0.00,VWS V15.00,2015-09-05 16:46:00,
2015-09-05 09:51:00,53.8,34.1,28.95,NE,51,3.0,7.0,47,0.00,,---,0.00,VWS V15.00,2015-09-05 16:51:00,
2015-09-05 09:56:00,54.5,33.6,28.95,North,5,0.0,7.0,45,0.00,,---,0.00,VWS V15.00,2015-09-05 16:56:00,
2015-09-05 10:01:00,53.4,33.7,28.95,NNW,346,0.0,3.0,47,0.00,,---,0.00,VWS V15.00,2015-09-05 17:01:00,
2015-09-05 10:06:00,55.4,33.9,28.95,NNE,24,2.0,6.0,44,0.00,,---,0.00,VWS V15.00,2015-09-05 17:06:00,
2015-09-05 10:11:00,54.6,32.6,28.95,North,349,0.0,3.0,43,0.00,,---,0.00,VWS V15.00,2015-09-05 17:11:00,
2015-09-05 10:16:00,56.3,34.1,28.96,NNE,14,2.0,5.0,43,0.00,,---,0.00,VWS V15.00,2015-09-05 17:16:00,
2015-09-05 10:21:00,57.7,34.2,28.96,NNE,17,5.0,8.0,41,0.00,,---,0.00,VWS V15.00,2015-09-05 17:21:00,
2015-09-05 10:26:00,56.8,32.8,28.96,NNE,32,2.0,7.0,40,0.00,,---,0.00,VWS V15.00,2015-09-05 17:26:00,